ePrivacy and GPDR Cookie Consent by Cookie Consent
EmailTwitter


Observations de surface / Québec / CYQB (71714)

Régions: Québec | Canada | États-Unis | Europe | France | UK | Ailleurs
Station
Affichage
Infos & localisation pour CYQB (71714) | Aide pour décoder les METARs

Observations prises le 2022-07-05 à 00H00 UTC à QUEBEC A, QB (CYQB)

Etat du ciel: ciel variable.

Température: 16.0 Celsius

Point de rosée: 14.0 Celsius

Humidité relative: 88%

Vents: Sud-ouest à 13 km/h ou 7 noeuds.

Pression au niveau moyen de la mer: 101.65 kilopascals.

Calage altimétrique: 101.62 kilopascals ou 30.01 pouces de mercure.

Visibilité horizontale: 30.00 milles terrestres ou 48.00 kilomètres.

Observation METAR:

CYQB 050000Z 23007KT 30SM FEW050 SCT090 SCT120 16/14 A3001 RMK SC2AC1AC1 SLP165

DENSITY ALT 400FT=